12MA weather

Mellen Street Heliport
Holliston, Massachusetts, United States

Public forecast

Using degrees Fahrenheit for public forecast. Weather courtesy of forecast.io.

METAR (pilot weather report)

Closest report is Norwood Memorial Airport, 12.0 nm (22.3 km) E. Retrieved 2019/09/19 14:53 UTC (45 minutes ago):

KOWD 191453Z VRB03KT 10SM CLR 18/06 A3034 RMK AO2 SLP274 T01830056 58004

TAF (pilot weather forecast)

Closest forecast is Laurence G Hanscom Field, 17.2 nm (31.8 km) NNE. Retrieved 2019/09/19 12:48 UTC (3 hours ago):

TAF KBED 191146Z 1912/2012 03005KT P6SM SKC